Newburg Corners, Wisconsin
Current Conditions -  °F | °C
As of 3:53 AM on Wednesday 22 Oct 2014 (Local Time) from KLSE Reporting Station
Clear Clear  
Wind Chill:   Ceiling: Unl
Heat Index:   Visibility: 10mi
Dew Point:   Wind: 8mph
Humidity: 83%   Direction: 120°ESE
Pressure: 30.27"   Gusts: NA
Location:  43.8385°N, 90.9811°W
Report Text: KLSE 220853Z AUTO 12007KT 10SM CLR 04/02 A3027 RMK AO2 SLP255 T00440017 53001
Loading
Personal Weather Stations






























Interactive Weather Map
Tropical Storm Tracking
New forecast layout! Learn more

10-Day Weather Forecast

Advertisements
Track Severe Weather on mobile